sensor_id;sensor_type;location;lat;lon;timestamp;P1;durP1;ratioP1;P2;durP2;ratioP2
39018;SDS011;24786;51.984;5.872;2022-10-16T00:00:49;4.40;;;2.90;;
39018;SDS011;24786;51.984;5.872;2022-10-16T00:03:15;6.65;;;2.75;;
39018;SDS011;24786;51.984;5.872;2022-10-16T00:05:41;4.57;;;2.72;;
39018;SDS011;24786;51.984;5.872;2022-10-16T00:08:09;4.35;;;2.80;;
39018;SDS011;24786;51.984;5.872;2022-10-16T00:10:38;5.50;;;2.58;;
39018;SDS011;24786;51.984;5.872;2022-10-16T00:13:03;4.90;;;2.83;;
39018;SDS011;24786;51.984;5.872;2022-10-16T00:15:30;7.63;;;2.92;;
39018;SDS011;24786;51.984;5.872;2022-10-16T00:17:58;5.28;;;3.13;;
39018;SDS011;24786;51.984;5.872;2022-10-16T00:20:23;4.85;;;2.90;;
39018;SDS011;24786;51.984;5.872;2022-10-16T00:22:52;4.30;;;2.92;;
39018;SDS011;24786;51.984;5.872;2022-10-16T00:25:17;3.30;;;2.83;;
39018;SDS011;24786;51.984;5.872;2022-10-16T00:27:51;6.35;;;3.10;;
39018;SDS011;24786;51.984;5.872;2022-10-16T00:30:17;9.18;;;3.13;;
39018;SDS011;24786;51.984;5.872;2022-10-16T00:32:51;3.30;;;2.92;;
39018;SDS011;24786;51.984;5.872;2022-10-16T00:35:17;6.57;;;3.13;;
39018;SDS011;24786;51.984;5.872;2022-10-16T00:37:42;4.30;;;3.08;;
39018;SDS011;24786;51.984;5.872;2022-10-16T00:40:09;4.53;;;3.17;;
39018;SDS011;24786;51.984;5.872;2022-10-16T00:42:35;4.53;;;3.42;;
39018;SDS011;24786;51.984;5.872;2022-10-16T00:45:10;5.47;;;3.45;;
39018;SDS011;24786;51.984;5.872;2022-10-16T00:47:42;6.28;;;2.67;;
39018;SDS011;24786;51.984;5.872;2022-10-16T00:50:28;4.47;;;2.63;;
39018;SDS011;24786;51.984;5.872;2022-10-16T00:52:56;5.68;;;3.63;;
39018;SDS011;24786;51.984;5.872;2022-10-16T00:55:23;5.00;;;3.17;;
39018;SDS011;24786;51.984;5.872;2022-10-16T00:58:05;5.07;;;3.40;;
39018;SDS011;24786;51.984;5.872;2022-10-16T01:00:31;5.22;;;3.20;;
39018;SDS011;24786;51.984;5.872;2022-10-16T01:02:58;7.30;;;3.58;;
39018;SDS011;24786;51.984;5.872;2022-10-16T01:05:44;4.85;;;2.90;;
39018;SDS011;24786;51.984;5.872;2022-10-16T01:08:18;6.63;;;3.42;;
39018;SDS011;24786;51.984;5.872;2022-10-16T01:11:02;4.10;;;3.17;;
39018;SDS011;24786;51.984;5.872;2022-10-16T01:14:07;7.88;;;3.58;;
39018;SDS011;24786;51.984;5.872;2022-10-16T01:16:43;3.05;;;2.75;;
39018;SDS011;24786;51.984;5.872;2022-10-16T01:19:17;6.72;;;3.33;;
39018;SDS011;24786;51.984;5.872;2022-10-16T01:21:51;8.25;;;3.40;;
39018;SDS011;24786;51.984;5.872;2022-10-16T01:35:11;5.45;;;3.65;;
39018;SDS011;24786;51.984;5.872;2022-10-16T01:40:27;8.68;;;3.83;;
39018;SDS011;24786;51.984;5.872;2022-10-16T01:42:56;4.50;;;3.28;;
39018;SDS011;24786;51.984;5.872;2022-10-16T01:45:43;4.43;;;3.53;;
39018;SDS011;24786;51.984;5.872;2022-10-16T01:48:09;6.38;;;3.50;;
39018;SDS011;24786;51.984;5.872;2022-10-16T01:50:39;5.57;;;3.85;;
39018;SDS011;24786;51.984;5.872;2022-10-16T01:53:07;7.75;;;4.10;;
39018;SDS011;24786;51.984;5.872;2022-10-16T01:55:38;8.02;;;3.95;;
39018;SDS011;24786;51.984;5.872;2022-10-16T01:58:10;5.00;;;3.55;;
39018;SDS011;24786;51.984;5.872;2022-10-16T02:00:37;4.43;;;3.30;;
39018;SDS011;24786;51.984;5.872;2022-10-16T02:03:04;8.57;;;3.53;;
39018;SDS011;24786;51.984;5.872;2022-10-16T02:08:19;5.45;;;3.60;;
39018;SDS011;24786;51.984;5.872;2022-10-16T02:10:47;6.25;;;3.58;;
39018;SDS011;24786;51.984;5.872;2022-10-16T02:15:57;8.15;;;3.40;;
39018;SDS011;24786;51.984;5.872;2022-10-16T02:18:23;7.03;;;3.47;;
39018;SDS011;24786;51.984;5.872;2022-10-16T02:20:58;4.05;;;3.42;;
39018;SDS011;24786;51.984;5.872;2022-10-16T02:23:29;3.75;;;3.15;;
39018;SDS011;24786;51.984;5.872;2022-10-16T02:26:18;4.53;;;3.60;;
39018;SDS011;24786;51.984;5.872;2022-10-16T02:28:54;4.47;;;3.13;;
39018;SDS011;24786;51.984;5.872;2022-10-16T02:31:27;4.50;;;2.95;;
39018;SDS011;24786;51.984;5.872;2022-10-16T02:33:56;3.17;;;2.88;;
39018;SDS011;24786;51.984;5.872;2022-10-16T02:36:25;3.15;;;2.83;;
39018;SDS011;24786;51.984;5.872;2022-10-16T02:38:52;4.85;;;3.15;;
39018;SDS011;24786;51.984;5.872;2022-10-16T02:41:18;4.18;;;2.85;;
39018;SDS011;24786;51.984;5.872;2022-10-16T02:43:45;3.95;;;3.10;;
39018;SDS011;24786;51.984;5.872;2022-10-16T02:46:11;4.05;;;3.20;;
39018;SDS011;24786;51.984;5.872;2022-10-16T02:48:36;3.35;;;3.05;;
39018;SDS011;24786;51.984;5.872;2022-10-16T02:51:02;3.95;;;3.17;;
39018;SDS011;24786;51.984;5.872;2022-10-16T02:53:27;4.63;;;3.38;;
39018;SDS011;24786;51.984;5.872;2022-10-16T02:55:53;6.68;;;3.40;;
39018;SDS011;24786;51.984;5.872;2022-10-16T02:58:18;4.95;;;2.90;;
39018;SDS011;24786;51.984;5.872;2022-10-16T03:00:44;6.80;;;3.13;;
39018;SDS011;24786;51.984;5.872;2022-10-16T03:03:10;4.43;;;3.28;;
39018;SDS011;24786;51.984;5.872;2022-10-16T03:05:36;3.45;;;2.97;;
39018;SDS011;24786;51.984;5.872;2022-10-16T03:08:02;8.27;;;3.30;;
39018;SDS011;24786;51.984;5.872;2022-10-16T03:10:27;6.95;;;3.20;;
39018;SDS011;24786;51.984;5.872;2022-10-16T03:12:53;4.90;;;2.95;;
39018;SDS011;24786;51.984;5.872;2022-10-16T03:15:18;4.10;;;2.72;;
39018;SDS011;24786;51.984;5.872;2022-10-16T03:17:44;3.45;;;2.90;;
39018;SDS011;24786;51.984;5.872;2022-10-16T03:20:10;4.35;;;2.83;;
39018;SDS011;24786;51.984;5.872;2022-10-16T03:22:36;7.70;;;3.05;;
39018;SDS011;24786;51.984;5.872;2022-10-16T03:25:01;5.93;;;2.90;;
39018;SDS011;24786;51.984;5.872;2022-10-16T03:27:27;3.83;;;2.95;;
39018;SDS011;24786;51.984;5.872;2022-10-16T03:29:56;3.77;;;3.10;;
39018;SDS011;24786;51.984;5.872;2022-10-16T03:32:21;6.55;;;2.75;;
39018;SDS011;24786;51.984;5.872;2022-10-16T03:34:47;5.15;;;2.90;;
39018;SDS011;24786;51.984;5.872;2022-10-16T03:37:14;3.55;;;2.45;;
39018;SDS011;24786;51.984;5.872;2022-10-16T03:39:39;3.63;;;2.80;;
39018;SDS011;24786;51.984;5.872;2022-10-16T03:42:05;3.55;;;2.70;;
39018;SDS011;24786;51.984;5.872;2022-10-16T03:44:30;3.10;;;2.78;;
39018;SDS011;24786;51.984;5.872;2022-10-16T03:46:56;5.10;;;2.95;;
39018;SDS011;24786;51.984;5.872;2022-10-16T03:49:24;6.75;;;2.90;;
39018;SDS011;24786;51.984;5.872;2022-10-16T03:51:50;2.97;;;2.67;;
39018;SDS011;24786;51.984;5.872;2022-10-16T03:54:15;3.55;;;2.97;;
39018;SDS011;24786;51.984;5.872;2022-10-16T03:56:41;3.03;;;2.65;;
39018;SDS011;24786;51.984;5.872;2022-10-16T03:59:06;4.43;;;2.67;;
39018;SDS011;24786;51.984;5.872;2022-10-16T04:01:32;5.60;;;2.70;;
39018;SDS011;24786;51.984;5.872;2022-10-16T04:03:57;5.78;;;3.42;;
39018;SDS011;24786;51.984;5.872;2022-10-16T04:06:23;3.72;;;2.50;;
39018;SDS011;24786;51.984;5.872;2022-10-16T04:08:49;3.47;;;2.70;;
39018;SDS011;24786;51.984;5.872;2022-10-16T04:11:14;3.42;;;2.90;;
39018;SDS011;24786;51.984;5.872;2022-10-16T04:13:40;5.78;;;3.08;;
39018;SDS011;24786;51.984;5.872;2022-10-16T04:16:06;3.28;;;2.90;;
39018;SDS011;24786;51.984;5.872;2022-10-16T04:18:32;3.20;;;2.70;;
39018;SDS011;24786;51.984;5.872;2022-10-16T04:21:01;5.93;;;3.28;;
39018;SDS011;24786;51.984;5.872;2022-10-16T04:23:30;3.63;;;2.75;;
39018;SDS011;24786;51.984;5.872;2022-10-16T04:25:56;4.38;;;2.40;;
39018;SDS011;24786;51.984;5.872;2022-10-16T04:28:30;8.30;;;3.50;;
39018;SDS011;24786;51.984;5.872;2022-10-16T04:30:59;3.17;;;2.78;;
39018;SDS011;24786;51.984;5.872;2022-10-16T04:33:24;6.38;;;2.75;;
39018;SDS011;24786;51.984;5.872;2022-10-16T04:36:05;5.93;;;2.70;;
39018;SDS011;24786;51.984;5.872;2022-10-16T04:38:31;4.15;;;2.83;;
39018;SDS011;24786;51.984;5.872;2022-10-16T04:40:57;4.03;;;2.58;;
39018;SDS011;24786;51.984;5.872;2022-10-16T04:43:22;3.45;;;2.70;;
39018;SDS011;24786;51.984;5.872;2022-10-16T04:45:54;3.53;;;2.50;;
39018;SDS011;24786;51.984;5.872;2022-10-16T04:48:21;13.05;;;2.60;;
39018;SDS011;24786;51.984;5.872;2022-10-16T04:50:53;3.05;;;2.75;;
39018;SDS011;24786;51.984;5.872;2022-10-16T04:53:19;3.75;;;3.00;;
39018;SDS011;24786;51.984;5.872;2022-10-16T04:56:00;3.20;;;2.78;;
39018;SDS011;24786;51.984;5.872;2022-10-16T04:58:25;3.35;;;3.05;;
39018;SDS011;24786;51.984;5.872;2022-10-16T05:00:51;3.35;;;2.40;;
39018;SDS011;24786;51.984;5.872;2022-10-16T05:03:16;3.38;;;3.05;;
39018;SDS011;24786;51.984;5.872;2022-10-16T05:05:43;3.45;;;2.50;;
39018;SDS011;24786;51.984;5.872;2022-10-16T05:08:30;2.78;;;2.50;;
39018;SDS011;24786;51.984;5.872;2022-10-16T05:10:55;4.10;;;2.70;;
39018;SDS011;24786;51.984;5.872;2022-10-16T05:13:21;6.63;;;2.80;;
39018;SDS011;24786;51.984;5.872;2022-10-16T05:15:49;5.50;;;2.88;;
39018;SDS011;24786;51.984;5.872;2022-10-16T05:18:15;7.38;;;2.80;;
39018;SDS011;24786;51.984;5.872;2022-10-16T05:20:48;3.03;;;2.70;;
39018;SDS011;24786;51.984;5.872;2022-10-16T05:23:13;5.03;;;3.08;;
39018;SDS011;24786;51.984;5.872;2022-10-16T05:25:55;6.05;;;3.03;;
39018;SDS011;24786;51.984;5.872;2022-10-16T05:28:26;4.78;;;2.67;;
39018;SDS011;24786;51.984;5.872;2022-10-16T05:31:26;3.53;;;2.72;;
39018;SDS011;24786;51.984;5.872;2022-10-16T05:33:45;5.40;;;2.78;;
39018;SDS011;24786;51.984;5.872;2022-10-16T05:36:11;3.05;;;2.58;;
39018;SDS011;24786;51.984;5.872;2022-10-16T05:38:37;3.40;;;2.58;;
39018;SDS011;24786;51.984;5.872;2022-10-16T05:41:03;3.10;;;2.60;;
39018;SDS011;24786;51.984;5.872;2022-10-16T05:43:30;3.58;;;2.83;;
39018;SDS011;24786;51.984;5.872;2022-10-16T05:46:00;2.80;;;2.55;;
39018;SDS011;24786;51.984;5.872;2022-10-16T05:48:28;4.47;;;2.50;;
39018;SDS011;24786;51.984;5.872;2022-10-16T05:50:58;10.88;;;3.15;;
39018;SDS011;24786;51.984;5.872;2022-10-16T05:53:24;3.70;;;2.90;;
39018;SDS011;24786;51.984;5.872;2022-10-16T05:55:53;3.60;;;2.53;;
39018;SDS011;24786;51.984;5.872;2022-10-16T05:58:19;4.10;;;2.45;;
39018;SDS011;24786;51.984;5.872;2022-10-16T06:00:52;4.50;;;3.10;;
39018;SDS011;24786;51.984;5.872;2022-10-16T06:03:24;2.70;;;2.50;;
39018;SDS011;24786;51.984;5.872;2022-10-16T06:05:50;3.38;;;2.90;;
39018;SDS011;24786;51.984;5.872;2022-10-16T06:08:16;3.22;;;2.70;;
39018;SDS011;24786;51.984;5.872;2022-10-16T06:10:43;2.85;;;2.50;;
39018;SDS011;24786;51.984;5.872;2022-10-16T06:13:09;3.10;;;2.80;;
39018;SDS011;24786;51.984;5.872;2022-10-16T06:15:35;4.18;;;2.42;;
39018;SDS011;24786;51.984;5.872;2022-10-16T06:18:03;3.10;;;2.50;;
39018;SDS011;24786;51.984;5.872;2022-10-16T06:20:30;3.50;;;2.97;;
39018;SDS011;24786;51.984;5.872;2022-10-16T06:22:55;6.15;;;3.40;;
39018;SDS011;24786;51.984;5.872;2022-10-16T06:25:22;3.33;;;3.03;;
39018;SDS011;24786;51.984;5.872;2022-10-16T06:27:47;3.92;;;3.15;;
39018;SDS011;24786;51.984;5.872;2022-10-16T06:30:13;7.32;;;3.63;;
39018;SDS011;24786;51.984;5.872;2022-10-16T06:32:40;3.42;;;2.80;;
39018;SDS011;24786;51.984;5.872;2022-10-16T06:35:05;4.40;;;2.88;;
39018;SDS011;24786;51.984;5.872;2022-10-16T06:37:31;4.07;;;3.38;;
39018;SDS011;24786;51.984;5.872;2022-10-16T06:39:57;3.65;;;3.10;;
39018;SDS011;24786;51.984;5.872;2022-10-16T06:42:22;3.10;;;2.85;;
39018;SDS011;24786;51.984;5.872;2022-10-16T06:44:48;3.80;;;3.40;;
39018;SDS011;24786;51.984;5.872;2022-10-16T06:47:13;5.30;;;3.65;;
39018;SDS011;24786;51.984;5.872;2022-10-16T06:49:39;4.20;;;2.95;;
39018;SDS011;24786;51.984;5.872;2022-10-16T06:52:04;3.95;;;3.50;;
39018;SDS011;24786;51.984;5.872;2022-10-16T06:54:30;3.80;;;3.40;;
39018;SDS011;24786;51.984;5.872;2022-10-16T06:56:56;3.20;;;2.90;;
39018;SDS011;24786;51.984;5.872;2022-10-16T06:59:21;4.40;;;3.67;;
39018;SDS011;24786;51.984;5.872;2022-10-16T07:01:47;3.33;;;3.00;;
39018;SDS011;24786;51.984;5.872;2022-10-16T07:04:13;3.70;;;3.05;;
39018;SDS011;24786;51.984;5.872;2022-10-16T07:06:38;4.40;;;3.25;;
39018;SDS011;24786;51.984;5.872;2022-10-16T07:09:05;4.75;;;3.63;;
39018;SDS011;24786;51.984;5.872;2022-10-16T07:11:33;3.28;;;2.90;;
39018;SDS011;24786;51.984;5.872;2022-10-16T07:14:00;3.85;;;3.30;;
39018;SDS011;24786;51.984;5.872;2022-10-16T07:16:27;4.65;;;3.08;;
39018;SDS011;24786;51.984;5.872;2022-10-16T07:18:55;4.82;;;3.10;;
39018;SDS011;24786;51.984;5.872;2022-10-16T07:21:25;5.03;;;2.85;;
39018;SDS011;24786;51.984;5.872;2022-10-16T07:23:54;3.20;;;2.80;;
39018;SDS011;24786;51.984;5.872;2022-10-16T07:26:22;3.38;;;2.80;;
39018;SDS011;24786;51.984;5.872;2022-10-16T07:28:48;5.20;;;3.30;;
39018;SDS011;24786;51.984;5.872;2022-10-16T07:31:14;6.28;;;2.90;;
39018;SDS011;24786;51.984;5.872;2022-10-16T07:33:42;4.43;;;2.78;;
39018;SDS011;24786;51.984;5.872;2022-10-16T07:36:09;3.13;;;2.70;;
39018;SDS011;24786;51.984;5.872;2022-10-16T07:38:35;6.25;;;3.05;;
39018;SDS011;24786;51.984;5.872;2022-10-16T07:41:05;4.03;;;2.83;;
39018;SDS011;24786;51.984;5.872;2022-10-16T07:43:32;4.43;;;2.97;;
39018;SDS011;24786;51.984;5.872;2022-10-16T07:45:58;7.40;;;3.22;;
39018;SDS011;24786;51.984;5.872;2022-10-16T07:48:28;5.85;;;2.63;;
39018;SDS011;24786;51.984;5.872;2022-10-16T07:51:08;3.72;;;2.70;;
39018;SDS011;24786;51.984;5.872;2022-10-16T07:53:46;3.30;;;2.72;;
39018;SDS011;24786;51.984;5.872;2022-10-16T07:56:25;6.05;;;2.83;;
39018;SDS011;24786;51.984;5.872;2022-10-16T07:58:51;5.38;;;2.90;;
39018;SDS011;24786;51.984;5.872;2022-10-16T08:01:17;3.17;;;2.60;;
39018;SDS011;24786;51.984;5.872;2022-10-16T08:03:56;5.82;;;2.65;;
39018;SDS011;24786;51.984;5.872;2022-10-16T08:06:28;4.20;;;2.83;;
39018;SDS011;24786;51.984;5.872;2022-10-16T08:08:55;5.97;;;3.60;;
39018;SDS011;24786;51.984;5.872;2022-10-16T08:11:21;3.85;;;2.72;;
39018;SDS011;24786;51.984;5.872;2022-10-16T08:13:46;5.20;;;3.22;;
39018;SDS011;24786;51.984;5.872;2022-10-16T08:16:21;5.65;;;2.80;;
39018;SDS011;24786;51.984;5.872;2022-10-16T08:18:56;4.55;;;3.25;;
39018;SDS011;24786;51.984;5.872;2022-10-16T08:21:31;5.05;;;2.70;;
39018;SDS011;24786;51.984;5.872;2022-10-16T08:24:03;3.25;;;2.88;;
39018;SDS011;24786;51.984;5.872;2022-10-16T08:26:28;3.08;;;2.75;;
39018;SDS011;24786;51.984;5.872;2022-10-16T08:28:54;6.53;;;2.80;;
39018;SDS011;24786;51.984;5.872;2022-10-16T08:31:21;3.53;;;2.80;;
39018;SDS011;24786;51.984;5.872;2022-10-16T08:33:59;4.72;;;2.80;;
39018;SDS011;24786;51.984;5.872;2022-10-16T08:36:25;3.38;;;2.63;;
39018;SDS011;24786;51.984;5.872;2022-10-16T08:38:50;8.52;;;3.08;;
39018;SDS011;24786;51.984;5.872;2022-10-16T08:47:13;4.68;;;2.80;;
39018;SDS011;24786;51.984;5.872;2022-10-16T08:49:42;9.45;;;3.22;;
39018;SDS011;24786;51.984;5.872;2022-10-16T08:52:12;7.30;;;3.60;;
39018;SDS011;24786;51.984;5.872;2022-10-16T08:54:41;5.72;;;3.45;;
39018;SDS011;24786;51.984;5.872;2022-10-16T08:57:14;4.35;;;2.83;;
39018;SDS011;24786;51.984;5.872;2022-10-16T08:59:44;9.55;;;2.95;;
39018;SDS011;24786;51.984;5.872;2022-10-16T09:08:03;4.88;;;2.63;;
39018;SDS011;24786;51.984;5.872;2022-10-16T09:10:34;5.30;;;3.10;;
39018;SDS011;24786;51.984;5.872;2022-10-16T09:16:18;4.05;;;2.88;;
39018;SDS011;24786;51.984;5.872;2022-10-16T09:18:55;7.55;;;2.40;;
39018;SDS011;24786;51.984;5.872;2022-10-16T09:21:28;5.75;;;2.40;;
39018;SDS011;24786;51.984;5.872;2022-10-16T09:26:36;8.63;;;2.67;;
39018;SDS011;24786;51.984;5.872;2022-10-16T09:29:04;3.47;;;2.30;;
39018;SDS011;24786;51.984;5.872;2022-10-16T09:31:32;5.45;;;2.53;;
39018;SDS011;24786;51.984;5.872;2022-10-16T09:34:02;5.18;;;2.55;;
39018;SDS011;24786;51.984;5.872;2022-10-16T09:36:39;7.38;;;2.50;;
39018;SDS011;24786;51.984;5.872;2022-10-16T09:39:09;3.78;;;1.92;;
39018;SDS011;24786;51.984;5.872;2022-10-16T09:41:37;4.45;;;2.00;;
39018;SDS011;24786;51.984;5.872;2022-10-16T09:44:18;3.40;;;2.40;;
39018;SDS011;24786;51.984;5.872;2022-10-16T09:46:47;5.05;;;1.98;;
39018;SDS011;24786;51.984;5.872;2022-10-16T09:49:26;5.22;;;2.28;;
39018;SDS011;24786;51.984;5.872;2022-10-16T09:52:03;4.90;;;2.30;;
39018;SDS011;24786;51.984;5.872;2022-10-16T09:54:48;6.47;;;1.95;;
39018;SDS011;24786;51.984;5.872;2022-10-16T09:57:15;4.15;;;2.45;;
39018;SDS011;24786;51.984;5.872;2022-10-16T09:59:53;4.75;;;2.35;;
39018;SDS011;24786;51.984;5.872;2022-10-16T10:02:25;6.40;;;2.08;;
39018;SDS011;24786;51.984;5.872;2022-10-16T10:04:54;6.07;;;1.90;;
39018;SDS011;24786;51.984;5.872;2022-10-16T10:07:23;6.03;;;2.25;;
39018;SDS011;24786;51.984;5.872;2022-10-16T10:09:58;9.43;;;2.30;;
39018;SDS011;24786;51.984;5.872;2022-10-16T10:12:24;8.55;;;2.67;;
39018;SDS011;24786;51.984;5.872;2022-10-16T10:14:52;3.67;;;2.15;;
39018;SDS011;24786;51.984;5.872;2022-10-16T10:17:21;3.88;;;2.20;;
39018;SDS011;24786;51.984;5.872;2022-10-16T10:19:56;5.50;;;2.20;;
39018;SDS011;24786;51.984;5.872;2022-10-16T10:22:27;7.65;;;2.40;;
39018;SDS011;24786;51.984;5.872;2022-10-16T10:27:55;8.38;;;1.90;;
39018;SDS011;24786;51.984;5.872;2022-10-16T10:39:15;8.30;;;1.70;;
39018;SDS011;24786;51.984;5.872;2022-10-16T10:50:03;7.03;;;2.13;;
39018;SDS011;24786;51.984;5.872;2022-10-16T11:01:13;6.28;;;1.58;;
39018;SDS011;24786;51.984;5.872;2022-10-16T11:06:48;7.22;;;2.63;;
39018;SDS011;24786;51.984;5.872;2022-10-16T11:11:49;4.97;;;1.60;;
39018;SDS011;24786;51.984;5.872;2022-10-16T11:14:29;5.32;;;1.88;;
39018;SDS011;24786;51.984;5.872;2022-10-16T11:19:48;6.20;;;1.83;;
39018;SDS011;24786;51.984;5.872;2022-10-16T11:22:50;5.40;;;1.75;;
39018;SDS011;24786;51.984;5.872;2022-10-16T11:25:30;7.82;;;2.83;;
39018;SDS011;24786;51.984;5.872;2022-10-16T11:28:07;6.05;;;1.50;;
39018;SDS011;24786;51.984;5.872;2022-10-16T11:33:39;8.15;;;1.60;;
39018;SDS011;24786;51.984;5.872;2022-10-16T11:36:33;10.60;;;1.77;;
39018;SDS011;24786;51.984;5.872;2022-10-16T11:41:49;5.05;;;1.67;;
39018;SDS011;24786;51.984;5.872;2022-10-16T11:44:26;5.10;;;1.58;;
39018;SDS011;24786;51.984;5.872;2022-10-16T11:47:34;5.10;;;1.48;;
39018;SDS011;24786;51.984;5.872;2022-10-16T11:50:10;4.93;;;1.50;;
39018;SDS011;24786;51.984;5.872;2022-10-16T11:53:01;4.43;;;1.50;;
39018;SDS011;24786;51.984;5.872;2022-10-16T11:55:45;5.65;;;1.65;;
39018;SDS011;24786;51.984;5.872;2022-10-16T11:58:28;5.38;;;1.48;;
39018;SDS011;24786;51.984;5.872;2022-10-16T12:06:40;9.27;;;1.58;;
39018;SDS011;24786;51.984;5.872;2022-10-16T12:09:14;4.60;;;1.63;;
39018;SDS011;24786;51.984;5.872;2022-10-16T12:11:49;6.65;;;1.35;;
39018;SDS011;24786;51.984;5.872;2022-10-16T12:16:50;5.43;;;1.27;;
39018;SDS011;24786;51.984;5.872;2022-10-16T12:19:21;7.55;;;1.67;;
39018;SDS011;24786;51.984;5.872;2022-10-16T12:21:48;5.75;;;1.60;;
39018;SDS011;24786;51.984;5.872;2022-10-16T12:24:22;8.10;;;1.60;;
39018;SDS011;24786;51.984;5.872;2022-10-16T12:26:49;5.00;;;1.60;;
39018;SDS011;24786;51.984;5.872;2022-10-16T12:31:54;4.38;;;1.52;;
39018;SDS011;24786;51.984;5.872;2022-10-16T12:34:31;5.70;;;1.80;;
39018;SDS011;24786;51.984;5.872;2022-10-16T12:40:11;8.15;;;1.95;;
39018;SDS011;24786;51.984;5.872;2022-10-16T12:42:49;6.60;;;1.55;;
39018;SDS011;24786;51.984;5.872;2022-10-16T12:48:18;5.55;;;1.42;;
39018;SDS011;24786;51.984;5.872;2022-10-16T12:50:49;9.77;;;2.70;;
39018;SDS011;24786;51.984;5.872;2022-10-16T12:53:20;5.65;;;1.50;;
39018;SDS011;24786;51.984;5.872;2022-10-16T12:55:52;4.93;;;1.50;;
39018;SDS011;24786;51.984;5.872;2022-10-16T12:59:14;8.85;;;1.40;;
39018;SDS011;24786;51.984;5.872;2022-10-16T13:02:16;5.38;;;1.50;;
39018;SDS011;24786;51.984;5.872;2022-10-16T13:08:32;7.22;;;1.60;;
39018;SDS011;24786;51.984;5.872;2022-10-16T13:14:03;7.07;;;1.50;;
39018;SDS011;24786;51.984;5.872;2022-10-16T13:16:57;5.38;;;1.30;;
39018;SDS011;24786;51.984;5.872;2022-10-16T13:19:55;3.65;;;1.45;;
39018;SDS011;24786;51.984;5.872;2022-10-16T13:22:51;6.45;;;1.52;;
39018;SDS011;24786;51.984;5.872;2022-10-16T13:27:59;4.57;;;1.13;;
39018;SDS011;24786;51.984;5.872;2022-10-16T13:30:32;2.58;;;1.23;;
39018;SDS011;24786;51.984;5.872;2022-10-16T13:33:10;5.28;;;1.60;;
39018;SDS011;24786;51.984;5.872;2022-10-16T13:35:52;11.35;;;2.40;;
39018;SDS011;24786;51.984;5.872;2022-10-16T13:38:20;5.50;;;1.60;;
39018;SDS011;24786;51.984;5.872;2022-10-16T13:40:55;5.55;;;1.98;;
39018;SDS011;24786;51.984;5.872;2022-10-16T13:46:26;7.97;;;1.60;;
39018;SDS011;24786;51.984;5.872;2022-10-16T13:51:27;7.90;;;1.52;;
39018;SDS011;24786;51.984;5.872;2022-10-16T13:54:08;9.07;;;2.80;;
39018;SDS011;24786;51.984;5.872;2022-10-16T13:56:36;7.78;;;1.58;;
39018;SDS011;24786;51.984;5.872;2022-10-16T13:59:04;9.70;;;1.90;;
39018;SDS011;24786;51.984;5.872;2022-10-16T14:01:32;4.57;;;1.60;;
39018;SDS011;24786;51.984;5.872;2022-10-16T14:04:17;6.03;;;1.88;;
39018;SDS011;24786;51.984;5.872;2022-10-16T14:06:44;5.40;;;1.65;;
39018;SDS011;24786;51.984;5.872;2022-10-16T14:09:28;6.97;;;1.65;;
39018;SDS011;24786;51.984;5.872;2022-10-16T14:12:02;5.05;;;1.50;;
39018;SDS011;24786;51.984;5.872;2022-10-16T14:14:43;5.03;;;1.70;;
39018;SDS011;24786;51.984;5.872;2022-10-16T14:17:24;3.53;;;1.25;;
39018;SDS011;24786;51.984;5.872;2022-10-16T14:19:53;5.03;;;1.92;;
39018;SDS011;24786;51.984;5.872;2022-10-16T14:30:58;4.50;;;1.70;;
39018;SDS011;24786;51.984;5.872;2022-10-16T14:33:54;5.63;;;1.75;;
39018;SDS011;24786;51.984;5.872;2022-10-16T14:36:27;4.13;;;1.30;;
39018;SDS011;24786;51.984;5.872;2022-10-16T14:39:13;4.32;;;1.45;;
39018;SDS011;24786;51.984;5.872;2022-10-16T14:44:56;6.80;;;1.40;;
39018;SDS011;24786;51.984;5.872;2022-10-16T14:47:47;3.97;;;1.50;;
39018;SDS011;24786;51.984;5.872;2022-10-16T14:50:41;6.35;;;1.80;;
39018;SDS011;24786;51.984;5.872;2022-10-16T14:53:13;6.55;;;1.35;;
39018;SDS011;24786;51.984;5.872;2022-10-16T14:55:51;6.38;;;1.38;;
39018;SDS011;24786;51.984;5.872;2022-10-16T14:58:21;6.85;;;1.40;;
39018;SDS011;24786;51.984;5.872;2022-10-16T15:01:02;5.03;;;1.85;;
39018;SDS011;24786;51.984;5.872;2022-10-16T15:03:28;4.60;;;1.83;;
39018;SDS011;24786;51.984;5.872;2022-10-16T15:05:54;7.80;;;1.63;;
39018;SDS011;24786;51.984;5.872;2022-10-16T15:08:25;7.28;;;1.70;;
39018;SDS011;24786;51.984;5.872;2022-10-16T15:10:51;4.03;;;1.35;;
39018;SDS011;24786;51.984;5.872;2022-10-16T15:13:25;5.40;;;1.65;;
39018;SDS011;24786;51.984;5.872;2022-10-16T15:15:51;8.07;;;1.70;;
39018;SDS011;24786;51.984;5.872;2022-10-16T15:18:18;5.15;;;1.63;;
39018;SDS011;24786;51.984;5.872;2022-10-16T15:20:57;7.35;;;1.60;;
39018;SDS011;24786;51.984;5.872;2022-10-16T15:23:22;4.78;;;1.63;;
39018;SDS011;24786;51.984;5.872;2022-10-16T15:25:52;9.57;;;1.90;;
39018;SDS011;24786;51.984;5.872;2022-10-16T15:28:19;5.93;;;1.30;;
39018;SDS011;24786;51.984;5.872;2022-10-16T15:30:46;7.90;;;1.58;;
39018;SDS011;24786;51.984;5.872;2022-10-16T15:33:14;9.48;;;3.75;;
39018;SDS011;24786;51.984;5.872;2022-10-16T15:35:42;11.48;;;4.15;;
39018;SDS011;24786;51.984;5.872;2022-10-16T15:38:17;7.60;;;2.83;;
39018;SDS011;24786;51.984;5.872;2022-10-16T15:40:45;4.93;;;2.17;;
39018;SDS011;24786;51.984;5.872;2022-10-16T15:43:26;7.30;;;1.77;;
39018;SDS011;24786;51.984;5.872;2022-10-16T15:46:06;6.15;;;1.58;;
39018;SDS011;24786;51.984;5.872;2022-10-16T15:48:35;6.32;;;1.60;;
39018;SDS011;24786;51.984;5.872;2022-10-16T15:51:07;5.55;;;1.50;;
39018;SDS011;24786;51.984;5.872;2022-10-16T15:53:33;6.53;;;2.28;;
39018;SDS011;24786;51.984;5.872;2022-10-16T15:56:10;6.03;;;1.52;;
39018;SDS011;24786;51.984;5.872;2022-10-16T15:58:36;6.65;;;2.10;;
39018;SDS011;24786;51.984;5.872;2022-10-16T16:04:22;5.53;;;1.70;;
39018;SDS011;24786;51.984;5.872;2022-10-16T16:09:57;6.70;;;1.55;;
39018;SDS011;24786;51.984;5.872;2022-10-16T16:12:40;8.18;;;1.60;;
39018;SDS011;24786;51.984;5.872;2022-10-16T16:15:06;8.80;;;2.10;;
39018;SDS011;24786;51.984;5.872;2022-10-16T16:17:33;5.82;;;1.92;;
39018;SDS011;24786;51.984;5.872;2022-10-16T16:20:06;6.97;;;1.85;;
39018;SDS011;24786;51.984;5.872;2022-10-16T16:22:32;7.93;;;2.25;;
39018;SDS011;24786;51.984;5.872;2022-10-16T16:27:32;6.13;;;2.35;;
39018;SDS011;24786;51.984;5.872;2022-10-16T16:30:10;4.85;;;1.60;;
39018;SDS011;24786;51.984;5.872;2022-10-16T16:32:46;5.57;;;1.75;;
39018;SDS011;24786;51.984;5.872;2022-10-16T16:35:11;5.32;;;1.90;;
39018;SDS011;24786;51.984;5.872;2022-10-16T16:37:42;6.05;;;1.85;;
39018;SDS011;24786;51.984;5.872;2022-10-16T16:40:08;6.93;;;1.80;;
39018;SDS011;24786;51.984;5.872;2022-10-16T16:42:36;5.20;;;1.92;;
39018;SDS011;24786;51.984;5.872;2022-10-16T16:45:04;5.25;;;1.88;;
39018;SDS011;24786;51.984;5.872;2022-10-16T16:47:31;5.32;;;1.70;;
39018;SDS011;24786;51.984;5.872;2022-10-16T16:50:08;9.93;;;1.88;;
39018;SDS011;24786;51.984;5.872;2022-10-16T16:52:49;4.80;;;1.85;;
39018;SDS011;24786;51.984;5.872;2022-10-16T16:55:14;6.32;;;2.10;;
39018;SDS011;24786;51.984;5.872;2022-10-16T16:57:47;5.68;;;2.40;;
39018;SDS011;24786;51.984;5.872;2022-10-16T17:00:13;5.07;;;2.75;;
39018;SDS011;24786;51.984;5.872;2022-10-16T17:02:39;6.75;;;2.28;;
39018;SDS011;24786;51.984;5.872;2022-10-16T17:05:17;7.88;;;2.58;;
39018;SDS011;24786;51.984;5.872;2022-10-16T17:07:43;6.97;;;2.63;;
39018;SDS011;24786;51.984;5.872;2022-10-16T17:10:09;9.18;;;3.20;;
39018;SDS011;24786;51.984;5.872;2022-10-16T17:12:45;5.38;;;2.83;;
39018;SDS011;24786;51.984;5.872;2022-10-16T17:15:16;5.20;;;2.63;;
39018;SDS011;24786;51.984;5.872;2022-10-16T17:20:45;7.90;;;3.13;;
39018;SDS011;24786;51.984;5.872;2022-10-16T17:23:15;5.03;;;3.08;;
39018;SDS011;24786;51.984;5.872;2022-10-16T17:26:03;4.70;;;3.13;;